Time;durP1;ratioP1;P1;durP2;ratioP2;P2;SDS_P1;SDS_P2;PMS_P1;PMS_P2;Temp;Humidity;BMP_temperature;BMP_pressure;BME280_temperature;BME280_humidity;BME280_pressure;Samples;Min_cycle;Max_cycle;Signal;HPM_P1;HPM_P2
2021/12/26 00:00:46;;;;;;;;;;;8.20;99.90;;;;;;5055410;28;19916;-63
2021/12/26 00:03:12;;;;;;;;;;;;;;;;;;5055024;28;20462;-64
2021/12/26 00:05:37;;;;;;;;;;;6.00;99.90;;;;;;5055278;28;19944;-64
2021/12/26 00:08:03;;;;;;;;;;;;;;;;;;5054893;28;19912;-64
2021/12/26 00:10:29;;;;;;;;;;;7.10;99.90;;;;;;5054770;28;19955;-64
2021/12/26 00:12:55;;;;;;;;;;;6.30;99.90;;;;;;5055002;28;19936;-63
2021/12/26 00:15:21;;;;;;;;;;;5.80;99.90;;;;;;5054975;28;19912;-63
2021/12/26 00:17:47;;;;;;;;;;;;;;;;;;5054922;28;20405;-63
2021/12/26 00:20:12;;;;;;;;;;;6.20;99.90;;;;;;5053948;28;19944;-64
2021/12/26 00:22:38;;;;;;;;;;;7.60;99.90;;;;;;5054882;28;19905;-63
2021/12/26 00:25:04;;;;;;;;;;;7.10;99.90;;;;;;5054566;28;19905;-63
2021/12/26 00:27:30;;;;;;;;;;;;;;;;;;5054785;28;19915;-64
2021/12/26 00:29:55;;;;;;;;;;;6.90;99.90;;;;;;5053996;28;19920;-64
2021/12/26 00:32:21;;;;;;;;;;;6.50;99.90;;;;;;5054747;28;20051;-64
2021/12/26 00:34:50;;;;;;;;;;;;;;;;;;5054786;28;19905;-64
2021/12/26 00:37:16;;;;;;;;;;;;;;;;;;5054244;28;19912;-63
2021/12/26 00:39:41;;;;;;;;;;;5.40;99.90;;;;;;5053790;28;19905;-64
2021/12/26 00:42:07;;;;;;;;;;;6.70;99.90;;;;;;5054510;28;20324;-64
2021/12/26 00:44:38;;;;;;;;;;;6.50;99.90;;;;;;5054521;28;19913;-64
2021/12/26 00:47:09;;;;;;;;;;;6.80;99.90;;;;;;5054409;28;19920;-64
2021/12/26 00:49:34;;;;;;;;;;;6.70;99.90;;;;;;5053408;28;19946;-64
2021/12/26 00:52:00;;;;;;;;;;;6.80;99.90;;;;;;5054564;28;20429;-64
2021/12/26 00:54:25;;;;;;;;;;;7.90;99.90;;;;;;5054661;28;19936;-63
2021/12/26 00:56:51;;;;;;;;;;;6.50;99.90;;;;;;5036282;28;20299;-63
2021/12/26 00:59:17;;;;;;;;;;;5.80;99.90;;;;;;5053993;28;19908;-63
2021/12/26 01:01:42;;;;;;;;;;;6.70;99.90;;;;;;5054333;28;19908;-65
2021/12/26 01:04:08;;;;;;;;;;;6.20;99.90;;;;;;5036167;28;19905;-65
2021/12/26 01:06:34;;;;;;;;;;;6.00;99.90;;;;;;5054349;28;19959;-63
2021/12/26 01:08:59;;;;;;;;;;;6.40;99.90;;;;;;5055326;28;19909;-63
2021/12/26 01:13:59;;;;;;;;;;;6.10;99.90;;;;;;5054243;28;19959;-64
2021/12/26 01:16:26;;;;;;;;;;;6.00;99.90;;;;;;5036034;28;20000;-65
2021/12/26 01:18:54;;;;;;;;;;;6.70;99.90;;;;;;5053529;28;20407;-64
2021/12/26 01:21:23;;;;;;;;;;;6.10;99.90;;;;;;5053533;28;19908;-65
2021/12/26 01:23:48;;;;;;;;;;;;;;;;;;5053702;28;19995;-64
2021/12/26 01:26:14;;;;;;;;;;;5.80;99.90;;;;;;5053521;28;19996;-65
2021/12/26 01:28:40;;;;;;;;;;;7.50;99.90;;;;;;5035624;28;19927;-64
2021/12/26 01:31:06;;;;;;;;;;;6.90;99.90;;;;;;5053341;28;19915;-64
2021/12/26 01:33:32;;;;;;;;;;;6.30;99.90;;;;;;5053231;28;20406;-65
2021/12/26 01:35:58;;;;;;;;;;;6.30;99.90;;;;;;5053418;28;19997;-63
2021/12/26 01:38:24;;;;;;;;;;;;;;;;;;5053026;28;19905;-63
2021/12/26 01:40:55;;;;;;;;;;;5.60;99.90;;;;;;5053425;28;19905;-64
2021/12/26 01:43:22;;;;;;;;;;;6.20;99.90;;;;;;5053560;28;20008;-64
2021/12/26 01:45:48;;;;;;;;;;;7.70;99.90;;;;;;5053189;28;19909;-63
2021/12/26 01:48:13;;;;;;;;;;;5.70;99.90;;;;;;5053022;28;20434;-63
2021/12/26 01:50:39;;;;;;;;;;;;;;;;;;5034882;28;19916;-64
2021/12/26 01:53:05;;;;;;;;;;;7.00;99.90;;;;;;5053152;28;19908;-64
2021/12/26 01:55:43;;;;;;;;;;;7.50;99.90;;;;;;5053210;28;19996;-64
2021/12/26 01:58:10;;;;;;;;;;;5.60;99.90;;;;;;5055247;28;19905;-63
2021/12/26 02:00:36;;;;;;;;;;;;;;;;;;5061448;28;20289;-63
2021/12/26 02:03:02;;;;;;;;;;;;;;;;;;5061000;28;19905;-64
2021/12/26 02:05:27;;;;;;;;;;;6.00;99.90;;;;;;5060213;28;19911;-63
2021/12/26 02:07:53;;;;;;;;;;;5.10;99.90;;;;;;5053510;28;19916;-64
2021/12/26 02:10:19;;;;;;;;;;;6.90;99.90;;;;;;5052242;28;19919;-64
2021/12/26 02:12:44;;;;;;;;;;;5.50;99.90;;;;;;5052937;28;19912;-64
2021/12/26 02:15:10;;;;;;;;;;;6.50;99.90;;;;;;5052551;28;19909;-64
2021/12/26 02:17:35;;;;;;;;;;;5.30;99.90;;;;;;5052286;28;19905;-64
2021/12/26 02:20:21;;;;;;;;;;;5.50;99.90;;;;;;5034063;28;20008;-64
2021/12/26 02:22:53;;;;;;;;;;;;;;;;;;5052581;28;19905;-63
2021/12/26 02:28:03;;;;;;;;;;;6.40;99.90;;;;;;5052387;28;19917;-64
2021/12/26 02:30:28;;;;;;;;;;;7.00;99.90;;;;;;5051896;28;19917;-63
2021/12/26 02:32:58;;;;;;;;;;;6.30;99.90;;;;;;5052070;28;19924;-67
2021/12/26 02:35:25;;;;;;;;;;;5.60;99.90;;;;;;5052057;28;19912;-65
2021/12/26 02:37:51;;;;;;;;;;;;;;;;;;5052194;28;19908;-69
2021/12/26 02:40:17;;;;;;;;;;;6.80;99.90;;;;;;5051695;28;20275;-69
2021/12/26 02:42:43;;;;;;;;;;;5.60;99.90;;;;;;5034492;28;19915;-69
2021/12/26 02:45:08;;;;;;;;;;;6.40;99.90;;;;;;5052020;28;19955;-70
2021/12/26 02:47:39;;;;;;;;;;;6.20;99.90;;;;;;5052347;28;19909;-69
2021/12/26 02:50:24;;;;;;;;;;;5.90;99.90;;;;;;5051608;28;19967;-68
2021/12/26 02:52:50;;;;;;;;;;;7.20;99.90;;;;;;5051706;28;19904;-68
2021/12/26 02:55:17;;;;;;;;;;;6.20;99.90;;;;;;5051933;28;19944;-65
2021/12/26 02:57:46;;;;;;;;;;;5.50;99.90;;;;;;5051929;28;19916;-64
2021/12/26 03:00:13;;;;;;;;;;;6.00;99.90;;;;;;5051307;28;19905;-65
2021/12/26 03:02:39;;;;;;;;;;;7.00;99.90;;;;;;5051981;28;20286;-65
2021/12/26 03:05:05;;;;;;;;;;;6.50;99.90;;;;;;5052046;28;19974;-65
2021/12/26 03:07:31;;;;;;;;;;;6.60;99.90;;;;;;5052225;28;19909;-65
2021/12/26 03:09:59;;;;;;;;;;;;;;;;;;5051510;28;20769;-65
2021/12/26 03:12:26;;;;;;;;;;;6.70;99.90;;;;;;5051936;28;19909;-65
2021/12/26 03:14:51;;;;;;;;;;;6.00;99.90;;;;;;5051967;28;20385;-65
2021/12/26 03:17:17;;;;;;;;;;;6.60;99.90;;;;;;5051379;28;19908;-65
2021/12/26 03:19:43;;;;;;;;;;;;;;;;;;5049848;28;19908;-64
2021/12/26 03:22:08;;;;;;;;;;;6.20;99.90;;;;;;5051565;28;19999;-64
2021/12/26 03:24:35;;;;;;;;;;;6.30;99.90;;;;;;5051730;28;19915;-65
2021/12/26 03:27:00;;;;;;;;;;;;;;;;;;5051446;28;20260;-65
2021/12/26 03:29:26;;;;;;;;;;;6.60;99.90;;;;;;5051018;28;19942;-65
2021/12/26 03:31:52;;;;;;;;;;;5.70;99.90;;;;;;5051812;28;19908;-65
2021/12/26 03:34:17;;;;;;;;;;;6.50;99.90;;;;;;5051362;28;19909;-65
2021/12/26 03:36:43;;;;;;;;;;;5.90;99.90;;;;;;5051490;28;20003;-65
2021/12/26 03:39:08;;;;;;;;;;;;;;;;;;5049906;28;19908;-64
2021/12/26 03:41:34;;;;;;;;;;;6.50;99.90;;;;;;5051477;28;19922;-65
2021/12/26 03:44:00;;;;;;;;;;;6.00;99.90;;;;;;5051730;28;19905;-65
2021/12/26 03:46:25;;;;;;;;;;;5.50;99.90;;;;;;5051467;28;20263;-65
2021/12/26 03:48:51;;;;;;;;;;;6.80;99.90;;;;;;5051084;28;20382;-65
2021/12/26 03:51:18;;;;;;;;;;;6.80;99.90;;;;;;5051111;28;19915;-65
2021/12/26 03:53:44;;;;;;;;;;;6.10;99.90;;;;;;5051490;28;19905;-65
2021/12/26 03:56:10;;;;;;;;;;;5.60;99.90;;;;;;5070536;23;20002;-69
2021/12/26 03:58:37;;;;;;;;;;;;;;;;;;5082934;28;19912;-69
2021/12/26 04:01:02;;;;;;;;;;;5.70;99.90;;;;;;5073368;28;19940;-69
2021/12/26 04:03:28;;;;;;;;;;;5.00;99.90;;;;;;5091803;28;19961;-69
2021/12/26 04:05:53;;;;;;;;;;;5.20;99.90;;;;;;5091650;28;19904;-70
2021/12/26 04:08:19;;;;;;;;;;;;;;;;;;5091291;28;20806;-70
2021/12/26 04:10:45;;;;;;;;;;;6.50;99.90;;;;;;5090855;28;19992;-68
2021/12/26 04:13:10;;;;;;;;;;;6.50;99.90;;;;;;5091540;28;19904;-69
2021/12/26 04:15:36;;;;;;;;;;;5.70;99.90;;;;;;5073505;28;20006;-71
2021/12/26 04:18:03;;;;;;;;;;;7.20;99.90;;;;;;5091380;28;19911;-69
2021/12/26 04:20:29;;;;;;;;;;;4.30;99.90;;;;;;5091079;28;19940;-68
2021/12/26 04:22:55;;;;;;;;;;;5.70;99.90;;;;;;5091982;28;20002;-70
2021/12/26 04:25:21;;;;;;;;;;;5.40;99.90;;;;;;5091253;28;19912;-70
2021/12/26 04:27:47;;;;;;;;;;;6.60;99.90;;;;;;5057061;28;19919;-69
2021/12/26 04:30:13;;;;;;;;;;;4.80;99.90;;;;;;5051166;28;19924;-69
2021/12/26 04:32:39;;;;;;;;;;;5.50;99.90;;;;;;5054718;28;20366;-69
2021/12/26 04:35:05;;;;;;;;;;;6.40;99.90;;;;;;5054620;28;20329;-69
2021/12/26 04:37:31;;;;;;;;;;;;;;;;;;5054551;28;19909;-69
2021/12/26 04:39:56;;;;;;;;;;;5.30;99.90;;;;;;5053902;28;19916;-69
2021/12/26 04:42:23;;;;;;;;;;;5.30;99.90;;;;;;5020034;28;19909;-71
2021/12/26 04:44:50;;;;;;;;;;;5.60;99.90;;;;;;5054430;28;19912;-70
2021/12/26 04:47:16;;;;;;;;;;;6.60;99.90;;;;;;5054393;28;19946;-70
2021/12/26 04:49:41;;;;;;;;;;;5.60;99.90;;;;;;5053888;28;20382;-70
2021/12/26 04:52:07;;;;;;;;;;;;;;;;;;5054282;28;19912;-71
2021/12/26 04:54:33;;;;;;;;;;;5.00;99.90;;;;;;5052884;28;19994;-70
2021/12/26 04:56:59;;;;;;;;;;;6.40;99.90;;;;;;5053330;28;19916;-69
2021/12/26 04:59:26;;;;;;;;;;;5.10;99.90;;;;;;5053012;28;20332;-69
2021/12/26 05:01:53;;;;;;;;;;;7.70;99.90;;;;;;5054346;28;19917;-71
2021/12/26 05:04:19;;;;;;;;;;;6.60;99.90;;;;;;5054343;28;19912;-70
2021/12/26 05:06:45;;;;;;;;;;;6.50;99.90;;;;;;5053991;28;19995;-69
2021/12/26 05:09:11;;;;;;;;;;;7.10;99.90;;;;;;5053398;28;19909;-70
2021/12/26 05:11:37;;;;;;;;;;;6.00;99.90;;;;;;5053813;28;20375;-70
2021/12/26 05:14:03;;;;;;;;;;;6.10;99.90;;;;;;5054441;28;20333;-71
2021/12/26 05:16:28;;;;;;;;;;;6.60;99.90;;;;;;5054175;28;19909;-71
2021/12/26 05:18:54;;;;;;;;;;;5.20;99.90;;;;;;5053808;28;20015;-70
2021/12/26 05:21:20;;;;;;;;;;;;;;;;;;5053213;28;19927;-69
2021/12/26 05:23:45;;;;;;;;;;;5.80;99.90;;;;;;5054143;28;19940;-70
2021/12/26 05:26:11;;;;;;;;;;;5.90;99.90;;;;;;5053609;28;19916;-71
2021/12/26 05:28:37;;;;;;;;;;;6.10;99.90;;;;;;5053989;28;20011;-70
2021/12/26 05:31:02;;;;;;;;;;;5.90;99.90;;;;;;5037712;28;19968;-69
2021/12/26 05:33:28;;;;;;;;;;;4.70;99.90;;;;;;5066206;28;20318;-70
2021/12/26 05:35:53;;;;;;;;;;;5.80;99.90;;;;;;5057996;28;19911;-70
2021/12/26 05:38:19;;;;;;;;;;;5.60;99.90;;;;;;5054625;28;19909;-70
2021/12/26 05:40:45;;;;;;;;;;;;;;;;;;5053181;28;19930;-68
2021/12/26 05:43:10;;;;;;;;;;;6.00;99.90;;;;;;5051477;28;19919;-68
2021/12/26 05:45:36;;;;;;;;;;;4.80;99.90;;;;;;5053338;28;19920;-69
2021/12/26 05:48:01;;;;;;;;;;;6.50;99.90;;;;;;5053364;28;19963;-69
2021/12/26 05:50:27;;;;;;;;;;;4.60;99.90;;;;;;5052117;28;19919;-69
2021/12/26 05:52:52;;;;;;;;;;;6.20;99.90;;;;;;5035691;28;19912;-69
2021/12/26 05:55:18;;;;;;;;;;;6.10;99.90;;;;;;5035376;28;19948;-69
2021/12/26 05:57:44;;;;;;;;;;;;;;;;;;5053108;28;19921;-68
2021/12/26 06:00:11;;;;;;;;;;;5.60;99.90;;;;;;5052793;28;19991;-70
2021/12/26 06:02:37;;;;;;;;;;;6.70;99.90;;;;;;5062305;28;19966;-70
2021/12/26 06:05:02;;;;;;;;;;;6.30;99.90;;;;;;5052852;28;19913;-70
2021/12/26 06:07:28;;;;;;;;;;;5.70;99.90;;;;;;5052976;28;19905;-70
2021/12/26 06:09:53;;;;;;;;;;;6.40;99.90;;;;;;5052407;28;19982;-69
2021/12/26 06:12:19;;;;;;;;;;;6.10;99.90;;;;;;5053788;28;20653;-69
2021/12/26 06:14:45;;;;;;;;;;;5.30;99.90;;;;;;5053119;28;19904;-69
2021/12/26 06:17:10;;;;;;;;;;;5.20;99.90;;;;;;5052961;28;19909;-70
2021/12/26 06:19:36;;;;;;;;;;;;;;;;;;5038383;28;20283;-70
2021/12/26 06:22:03;;;;;;;;;;;6.70;99.90;;;;;;5052679;28;19915;-69
2021/12/26 06:24:28;;;;;;;;;;;;;;;;;;5053399;28;20368;-69
2021/12/26 06:26:54;;;;;;;;;;;6.60;99.90;;;;;;5052657;28;19950;-69
2021/12/26 06:29:19;;;;;;;;;;;5.80;99.90;;;;;;5051565;28;19912;-70
2021/12/26 06:31:45;;;;;;;;;;;6.90;99.90;;;;;;5052520;28;19931;-69
2021/12/26 06:34:10;;;;;;;;;;;5.80;99.90;;;;;;5052455;28;19908;-69
2021/12/26 06:36:36;;;;;;;;;;;;;;;;;;5052059;28;19970;-69
2021/12/26 06:39:02;;;;;;;;;;;4.90;99.90;;;;;;5050981;28;20022;-69
2021/12/26 06:41:38;;;;;;;;;;;6.60;99.90;;;;;;5053967;28;19905;-75
2021/12/26 06:44:06;;;;;;;;;;;6.10;99.90;;;;;;5061810;28;20350;-76
2021/12/26 06:46:33;;;;;;;;;;;5.50;99.90;;;;;;5064601;28;20324;-75
2021/12/26 06:48:58;;;;;;;;;;;5.60;99.90;;;;;;5065201;28;20024;-74
2021/12/26 06:51:24;;;;;;;;;;;6.20;99.90;;;;;;5072168;28;20437;-75
2021/12/26 06:53:49;;;;;;;;;;;7.10;99.90;;;;;;5071375;28;19958;-75
2021/12/26 06:56:15;;;;;;;;;;;5.90;99.90;;;;;;5054003;28;19916;-74
2021/12/26 06:58:40;;;;;;;;;;;6.00;99.90;;;;;;5070703;28;20459;-72
2021/12/26 07:01:06;;;;;;;;;;;5.50;99.90;;;;;;5047343;28;19915;-72
2021/12/26 07:03:31;;;;;;;;;;;6.20;99.90;;;;;;5053686;28;19908;-71
2021/12/26 07:05:57;;;;;;;;;;;;;;;;;;5071977;28;19912;-72
2021/12/26 07:08:23;;;;;;;;;;;6.20;99.90;;;;;;5071599;28;19955;-72
2021/12/26 07:10:49;;;;;;;;;;;5.70;99.90;;;;;;5071668;28;19912;-72
2021/12/26 07:13:14;;;;;;;;;;;6.00;99.90;;;;;;5071998;28;19919;-72
2021/12/26 07:15:40;;;;;;;;;;;5.70;99.90;;;;;;5053441;28;19905;-72
2021/12/26 07:18:06;;;;;;;;;;;5.10;99.90;;;;;;5071511;28;19904;-74
2021/12/26 07:20:31;;;;;;;;;;;5.60;99.90;;;;;;5071402;28;19916;-74
2021/12/26 07:22:57;;;;;;;;;;;5.80;99.90;;;;;;5071826;28;20404;-73
2021/12/26 07:25:22;;;;;;;;;;;5.60;99.90;;;;;;5071471;28;19904;-73
2021/12/26 07:27:48;;;;;;;;;;;5.60;99.90;;;;;;5071751;28;19904;-73
2021/12/26 07:30:14;;;;;;;;;;;5.60;99.90;;;;;;5063095;28;19928;-74
2021/12/26 07:32:39;;;;;;;;;;;5.60;99.90;;;;;;5033811;28;19963;-75
2021/12/26 07:35:05;;;;;;;;;;;5.60;99.90;;;;;;5051262;28;19915;-76
2021/12/26 07:37:30;;;;;;;;;;;5.60;99.90;;;;;;5060121;28;19908;-76
2021/12/26 07:39:56;;;;;;;;;;;5.40;99.90;;;;;;5071231;28;19947;-78
2021/12/26 07:42:22;;;;;;;;;;;6.80;99.90;;;;;;5072266;28;19908;-77
2021/12/26 07:44:47;;;;;;;;;;;5.90;99.90;;;;;;5067722;28;19915;-75
2021/12/26 07:47:13;;;;;;;;;;;6.70;99.90;;;;;;5068716;28;19940;-74
2021/12/26 07:49:39;;;;;;;;;;;5.40;99.90;;;;;;5071327;28;20317;-75
2021/12/26 07:52:15;;;;;;;;;;;;;;;;;;5071085;28;19908;-76
2021/12/26 07:54:42;;;;;;;;;;;5.80;99.90;;;;;;5071266;28;19905;-76
2021/12/26 07:57:08;;;;;;;;;;;5.90;99.90;;;;;;5071787;28;19917;-76
2021/12/26 07:59:34;;;;;;;;;;;5.40;99.90;;;;;;5068480;28;19909;-75
2021/12/26 08:02:00;;;;;;;;;;;5.20;99.90;;;;;;5051504;28;20007;-76
2021/12/26 08:04:26;;;;;;;;;;;5.20;99.90;;;;;;5051269;28;19909;-75
2021/12/26 08:06:53;;;;;;;;;;;;;;;;;;5054891;28;20470;-76
2021/12/26 08:09:19;;;;;;;;;;;6.00;99.90;;;;;;5054700;28;19928;-71
2021/12/26 08:11:44;;;;;;;;;;;5.70;99.90;;;;;;5055242;28;20290;-70
2021/12/26 08:14:10;;;;;;;;;;;5.50;99.90;;;;;;5054684;28;19905;-73
2021/12/26 08:16:35;;;;;;;;;;;6.00;99.90;;;;;;5073902;28;20501;-73
2021/12/26 08:19:02;;;;;;;;;;;5.50;99.90;;;;;;5074447;28;20007;-73
2021/12/26 08:21:28;;;;;;;;;;;6.40;99.90;;;;;;5074966;28;19908;-72
2021/12/26 08:23:54;;;;;;;;;;;6.00;99.90;;;;;;5074899;28;19959;-72
2021/12/26 08:26:19;;;;;;;;;;;6.70;99.90;;;;;;5074957;28;20370;-77
2021/12/26 08:28:45;;;;;;;;;;;6.40;99.90;;;;;;5074730;28;19961;-75
2021/12/26 08:31:11;;;;;;;;;;;7.00;99.90;;;;;;5058833;28;19959;-78
2021/12/26 08:33:36;;;;;;;;;;;;;;;;;;5054879;28;19950;-75
2021/12/26 08:36:03;;;;;;;;;;;6.10;99.90;;;;;;5054591;28;19912;-71
2021/12/26 08:38:28;;;;;;;;;;;5.60;99.90;;;;;;5071096;28;19949;-76
2021/12/26 08:40:54;;;;;;;;;;;;;;;;;;5074748;28;19909;-77
2021/12/26 08:43:20;;;;;;;;;;;5.90;99.90;;;;;;5075044;28;19942;-76
2021/12/26 08:45:45;;;;;;;;;;;5.70;99.90;;;;;;5090099;28;19934;-75
2021/12/26 08:48:11;;;;;;;;;;;7.30;99.90;;;;;;5094279;28;19955;-73
2021/12/26 08:50:37;;;;;;;;;;;6.30;99.90;;;;;;5074335;28;19958;-75
2021/12/26 08:53:04;;;;;;;;;;;;;;;;;;5074706;28;19905;-77
2021/12/26 08:55:29;;;;;;;;;;;6.70;99.90;;;;;;5074502;28;20018;-77
2021/12/26 08:57:55;;;;;;;;;;;;;;;;;;5056349;28;19939;-74
2021/12/26 09:00:22;;;;;;;;;;;5.40;99.90;;;;;;5064563;28;20686;-75
2021/12/26 09:02:47;;;;;;;;;;;6.60;99.90;;;;;;5054303;28;20006;-73
2021/12/26 09:05:13;;;;;;;;;;;7.00;99.90;;;;;;5054145;28;20008;-77
2021/12/26 09:07:39;;;;;;;;;;;6.90;99.90;;;;;;5054362;28;19947;-77
2021/12/26 09:10:06;;;;;;;;;;;5.20;99.90;;;;;;5055252;28;20615;-77
2021/12/26 09:12:31;;;;;;;;;;;6.40;99.90;;;;;;5065176;28;19919;-75
2021/12/26 09:14:57;;;;;;;;;;;6.50;99.90;;;;;;5073819;28;19916;-75
2021/12/26 09:17:22;;;;;;;;;;;6.60;99.90;;;;;;5069372;28;19919;-75
2021/12/26 09:19:48;;;;;;;;;;;6.60;99.90;;;;;;5062804;28;19916;-75
2021/12/26 09:22:15;;;;;;;;;;;5.60;99.90;;;;;;5064809;28;20278;-76
2021/12/26 09:24:41;;;;;;;;;;;6.00;99.90;;;;;;5073843;28;19904;-74
2021/12/26 09:27:07;;;;;;;;;;;6.50;99.90;;;;;;5072864;28;19908;-76
2021/12/26 09:29:32;;;;;;;;;;;6.70;99.90;;;;;;5070608;28;19931;-75
2021/12/26 09:31:58;;;;;;;;;;;7.20;99.90;;;;;;5053484;28;19920;-75
2021/12/26 09:34:24;;;;;;;;;;;6.60;99.90;;;;;;5053413;28;19909;-75
2021/12/26 09:36:50;;;;;;;;;;;;;;;;;;5053418;28;19905;-76
2021/12/26 09:39:16;;;;;;;;;;;6.50;99.90;;;;;;5055253;28;19931;-75
2021/12/26 09:41:42;;;;;;;;;;;7.20;99.90;;;;;;5061755;28;19964;-76
2021/12/26 09:44:08;;;;;;;;;;;7.50;99.90;;;;;;5043828;28;19912;-76
2021/12/26 09:46:34;;;;;;;;;;;6.90;99.90;;;;;;5062854;28;19915;-75
2021/12/26 09:49:00;;;;;;;;;;;6.40;99.90;;;;;;5061077;28;19915;-75
2021/12/26 09:51:26;;;;;;;;;;;7.00;99.90;;;;;;5062801;28;19912;-75
2021/12/26 09:53:51;;;;;;;;;;;7.50;99.90;;;;;;5060973;28;19962;-77
2021/12/26 09:56:17;;;;;;;;;;;6.60;99.90;;;;;;5053357;28;19917;-76
2021/12/26 09:58:57;;;;;;;;;;;6.90;99.90;;;;;;5054490;28;19924;-74
2021/12/26 10:01:30;;;;;;;;;;;6.90;99.90;;;;;;5054189;28;19905;-76
2021/12/26 10:03:55;;;;;;;;;;;;;;;;;;5053607;28;19905;-74
2021/12/26 10:06:21;;;;;;;;;;;7.90;99.90;;;;;;5071706;28;19905;-70
2021/12/26 10:08:55;;;;;;;;;;;6.80;99.90;;;;;;5072419;28;20294;-69
2021/12/26 10:11:22;;;;;;;;;;;7.90;99.90;;;;;;5072698;28;19943;-69
2021/12/26 10:13:49;;;;;;;;;;;7.60;99.90;;;;;;5072851;28;19951;-69
2021/12/26 10:16:15;;;;;;;;;;;7.90;99.90;;;;;;5072558;28;19904;-68
2021/12/26 10:18:41;;;;;;;;;;;8.50;99.90;;;;;;5065675;28;19909;-68
2021/12/26 10:21:27;;;;;;;;;;;8.10;99.90;;;;;;5057551;28;19913;-69
2021/12/26 10:23:53;;;;;;;;;;;7.90;99.90;;;;;;5061756;28;19935;-69
2021/12/26 10:26:23;;;;;;;;;;;8.20;99.90;;;;;;5052134;28;19909;-69
2021/12/26 10:28:49;;;;;;;;;;;;;;;;;;5051619;28;19916;-70
2021/12/26 10:31:15;;;;;;;;;;;8.40;99.90;;;;;;5052248;28;20282;-69
2021/12/26 10:33:47;;;;;;;;;;;8.90;99.90;;;;;;5052659;28;20370;-70
2021/12/26 10:36:13;;;;;;;;;;;7.70;99.90;;;;;;5052187;28;19912;-70
2021/12/26 10:38:38;;;;;;;;;;;8.30;99.90;;;;;;5054339;28;20007;-69
2021/12/26 10:41:22;;;;;;;;;;;8.40;99.90;;;;;;5050822;28;20363;-74
2021/12/26 10:43:48;;;;;;;;;;;8.20;99.90;;;;;;5065602;28;19904;-75
2021/12/26 10:46:14;;;;;;;;;;;8.00;99.90;;;;;;5073075;28;19910;-76
2021/12/26 10:48:40;;;;;;;;;;;9.50;99.90;;;;;;5052164;28;19995;-77
2021/12/26 10:51:05;;;;;;;;;;;7.50;99.90;;;;;;5051989;28;20431;-77
2021/12/26 10:53:31;;;;;;;;;;;;;;;;;;5052428;28;19962;-76
2021/12/26 10:56:08;;;;;;;;;;;8.80;99.90;;;;;;5048143;28;20306;-76
2021/12/26 10:58:35;;;;;;;;;;;9.10;99.90;;;;;;5051200;28;19905;-76
2021/12/26 11:01:01;;;;;;;;;;;9.30;99.90;;;;;;5049801;28;19909;-76
2021/12/26 11:03:28;;;;;;;;;;;9.70;99.90;;;;;;5051065;28;19915;-75
2021/12/26 11:05:55;;;;;;;;;;;9.30;99.90;;;;;;5052415;28;20278;-75
2021/12/26 11:08:29;;;;;;;;;;;8.70;99.90;;;;;;5052081;28;19909;-75
2021/12/26 11:10:55;;;;;;;;;;;9.30;99.90;;;;;;5051686;28;19915;-76
2021/12/26 11:13:25;;;;;;;;;;;9.20;99.90;;;;;;5052140;28;19912;-75
2021/12/26 11:15:55;;;;;;;;;;;10.50;99.90;;;;;;5067802;28;19999;-74
2021/12/26 11:18:22;;;;;;;;;;;10.90;99.90;;;;;;5071997;28;19950;-75
2021/12/26 11:20:47;;;;;;;;;;;;;;;;;;5072096;28;20457;-74
2021/12/26 11:23:15;;;;;;;;;;;11.50;99.90;;;;;;5072002;28;19901;-75
2021/12/26 11:25:51;;;;;;;;;;;10.90;99.90;;;;;;5073082;28;19904;-79
2021/12/26 11:28:17;;;;;;;;;;;12.70;99.90;;;;;;5074205;28;20290;-79
2021/12/26 11:30:44;;;;;;;;;;;12.20;99.90;;;;;;5062992;28;19916;-79
2021/12/26 11:33:11;;;;;;;;;;;13.00;99.90;;;;;;5067636;28;19905;-78
2021/12/26 11:35:37;;;;;;;;;;;13.70;99.90;;;;;;5061315;28;19904;-78
2021/12/26 11:38:03;;;;;;;;;;;14.10;99.90;;;;;;5074730;28;19908;-75
2021/12/26 11:40:29;;;;;;;;;;;15.10;99.90;;;;;;5072666;28;20438;-75
2021/12/26 11:42:58;;;;;;;;;;;14.90;99.90;;;;;;5075523;28;19931;-75
2021/12/26 11:45:30;;;;;;;;;;;16.30;99.90;;;;;;5074444;28;19908;-75
2021/12/26 11:48:22;;;;;;;;;;;16.20;99.90;;;;;;5057529;28;19999;-75
2021/12/26 11:50:56;;;;;;;;;;;15.40;99.90;;;;;;5062106;28;20018;-75
2021/12/26 11:53:31;;;;;;;;;;;15.80;99.90;;;;;;5076452;28;19912;-79
2021/12/26 11:55:56;;;;;;;;;;;15.90;99.90;;;;;;5064027;28;19904;-81
2021/12/26 11:58:31;;;;;;;;;;;16.60;99.90;;;;;;5075769;28;19913;-78
2021/12/26 12:00:58;;;;;;;;;;;17.50;99.90;;;;;;5073545;28;20355;-79
2021/12/26 12:03:25;;;;;;;;;;;17.90;99.90;;;;;;5077353;28;19912;-78
2021/12/26 12:05:51;;;;;;;;;;;16.60;99.90;;;;;;5076641;28;19920;-76
2021/12/26 12:08:23;;;;;;;;;;;14.60;99.90;;;;;;5075166;28;19919;-76
2021/12/26 12:10:54;;;;;;;;;;;14.40;99.90;;;;;;5075082;28;19915;-76
2021/12/26 12:13:23;;;;;;;;;;;12.60;99.90;;;;;;5075417;28;19940;-74
2021/12/26 12:15:48;;;;;;;;;;;12.60;99.90;;;;;;5056859;28;20279;-77
2021/12/26 12:18:16;;;;;;;;;;;12.30;99.90;;;;;;5062077;28;20334;-77
2021/12/26 12:20:41;;;;;;;;;;;11.30;99.90;;;;;;5055229;28;19905;-75
2021/12/26 12:23:07;;;;;;;;;;;;;;;;;;5055250;28;19982;-76
2021/12/26 12:25:33;;;;;;;;;;;10.10;99.90;;;;;;5055456;28;19974;-79
2021/12/26 12:28:05;;;;;;;;;;;10.90;99.90;;;;;;5058202;28;19905;-78
2021/12/26 12:30:31;;;;;;;;;;;11.60;99.90;;;;;;5058060;28;19913;-77
2021/12/26 12:33:15;;;;;;;;;;;9.70;99.90;;;;;;5058822;28;19999;-74
2021/12/26 12:35:47;;;;;;;;;;;9.70;99.90;;;;;;5064747;28;19909;-76
2021/12/26 12:38:26;;;;;;;;;;;9.40;99.90;;;;;;5082776;28;19912;-76
2021/12/26 12:40:52;;;;;;;;;;;9.40;99.90;;;;;;5081982;28;20319;-76
2021/12/26 12:43:19;;;;;;;;;;;9.80;99.90;;;;;;5076282;28;19912;-76
2021/12/26 12:48:20;;;;;;;;;;;9.40;99.90;;;;;;5076091;28;19904;-76
2021/12/26 12:50:48;;;;;;;;;;;10.20;99.90;;;;;;5074925;28;19912;-76
2021/12/26 12:53:32;;;;;;;;;;;10.30;99.90;;;;;;5076673;28;19904;-75
2021/12/26 12:55:57;;;;;;;;;;;9.60;99.90;;;;;;5076274;28;19923;-76
2021/12/26 12:58:26;;;;;;;;;;;9.40;99.90;;;;;;5057377;28;19912;-75
2021/12/26 13:00:52;;;;;;;;;;;11.30;99.90;;;;;;5074961;28;20302;-75
2021/12/26 13:03:19;;;;;;;;;;;10.50;99.90;;;;;;5075680;28;19908;-75
2021/12/26 13:05:45;;;;;;;;;;;9.00;99.90;;;;;;5075343;28;19905;-76
2021/12/26 13:08:13;;;;;;;;;;;;;;;;;;5074772;28;19912;-76
2021/12/26 13:10:39;;;;;;;;;;;10.60;99.90;;;;;;5074202;28;19908;-76
2021/12/26 13:13:11;;;;;;;;;;;9.90;99.90;;;;;;5075214;28;20305;-76
2021/12/26 13:15:48;;;;;;;;;;;10.00;99.90;;;;;;5074175;28;19908;-75
2021/12/26 13:18:14;;;;;;;;;;;9.30;99.90;;;;;;5074004;28;19912;-80
2021/12/26 13:20:40;;;;;;;;;;;10.40;99.90;;;;;;5073368;28;20262;-74
2021/12/26 13:23:06;;;;;;;;;;;11.30;99.90;;;;;;5055950;28;20349;-74
2021/12/26 13:25:31;;;;;;;;;;;9.30;99.90;;;;;;5073740;28;19965;-73
2021/12/26 13:27:57;;;;;;;;;;;10.40;99.90;;;;;;5073861;28;19912;-73
2021/12/26 13:30:23;;;;;;;;;;;;;;;;;;5072648;28;19915;-73
2021/12/26 13:32:49;;;;;;;;;;;10.50;99.90;;;;;;5073722;28;19904;-73
2021/12/26 13:35:14;;;;;;;;;;;10.40;99.90;;;;;;5058502;28;19909;-73
2021/12/26 13:37:40;;;;;;;;;;;10.50;99.90;;;;;;5073652;28;19912;-73
2021/12/26 13:40:07;;;;;;;;;;;10.00;99.90;;;;;;5073152;28;19908;-73
2021/12/26 13:42:33;;;;;;;;;;;10.80;99.90;;;;;;5073800;28;19915;-73
2021/12/26 13:44:58;;;;;;;;;;;10.00;99.90;;;;;;5059264;28;19905;-73
2021/12/26 13:47:24;;;;;;;;;;;10.30;99.90;;;;;;5053397;28;19908;-77
2021/12/26 13:50:03;;;;;;;;;;;11.30;99.90;;;;;;5036187;28;19909;-75
2021/12/26 13:52:28;;;;;;;;;;;10.90;99.90;;;;;;5054474;28;20331;-76
2021/12/26 13:54:57;;;;;;;;;;;11.30;99.90;;;;;;5054587;28;19954;-75
2021/12/26 13:57:23;;;;;;;;;;;10.70;99.90;;;;;;5056444;28;19948;-77
2021/12/26 13:59:54;;;;;;;;;;;9.50;99.90;;;;;;5037247;28;19912;-78
2021/12/26 14:02:22;;;;;;;;;;;10.50;99.90;;;;;;5066908;28;19904;-75
2021/12/26 14:04:52;;;;;;;;;;;10.00;99.90;;;;;;5070275;28;19919;-80
2021/12/26 14:07:20;;;;;;;;;;;10.00;99.90;;;;;;5075078;28;19930;-76
2021/12/26 14:09:46;;;;;;;;;;;9.70;99.90;;;;;;5071200;28;20270;-78
2021/12/26 14:12:29;;;;;;;;;;;11.10;99.90;;;;;;5039479;28;20011;-78
2021/12/26 14:14:58;;;;;;;;;;;9.90;99.90;;;;;;5060393;28;19909;-78
2021/12/26 14:17:23;;;;;;;;;;;10.40;99.90;;;;;;5053064;28;20642;-78
2021/12/26 14:19:52;;;;;;;;;;;11.60;99.90;;;;;;5052713;28;19927;-78
2021/12/26 14:22:28;;;;;;;;;;;9.80;99.90;;;;;;5055143;28;19931;-78
2021/12/26 14:24:56;;;;;;;;;;;10.80;99.90;;;;;;5052957;28;20370;-78
2021/12/26 14:27:22;;;;;;;;;;;11.20;99.90;;;;;;5052345;28;19913;-78
2021/12/26 14:29:58;;;;;;;;;;;10.70;99.90;;;;;;5052336;28;19913;-77
2021/12/26 14:32:23;;;;;;;;;;;11.90;99.90;;;;;;5059749;28;20052;-77
2021/12/26 14:34:49;;;;;;;;;;;9.90;99.90;;;;;;5062802;28;20090;-78
2021/12/26 14:37:20;;;;;;;;;;;10.20;99.90;;;;;;5071124;28;19908;-78
2021/12/26 14:39:45;;;;;;;;;;;10.20;99.90;;;;;;5068346;28;19918;-77
2021/12/26 14:42:18;;;;;;;;;;;9.10;99.90;;;;;;5071703;28;20003;-78
2021/12/26 14:44:48;;;;;;;;;;;9.20;99.90;;;;;;5068510;28;20409;-77
2021/12/26 14:47:15;;;;;;;;;;;9.90;99.90;;;;;;5064059;28;20290;-77